Time;durP1;ratioP1;P1;durP2;ratioP2;P2;SDS_P1;SDS_P2;PMS_P1;PMS_P2;Temp;Humidity;BMP_temperature;BMP_pressure;BME280_temperature;BME280_humidity;BME280_pressure;Samples;Min_cycle;Max_cycle;Signal;HPM_P1;HPM_P2
2023/08/15 00:01:36;;;;;;;3.83;3.53;;;;;;;;;;5025441;28;20195;-50
2023/08/15 00:04:02;;;;;;;4.90;4.40;;;;;;;;;;5026184;28;20210;-50
2023/08/15 00:06:29;;;;;;;4.37;3.97;;;;;;;;;;5029202;28;20663;-50
2023/08/15 00:08:55;;;;;;;4.83;4.10;;;;;;;;;;5025594;28;20201;-50
2023/08/15 00:11:21;;;;;;;5.53;4.17;;;;;;;;;;5028255;28;20217;-50
2023/08/15 00:13:47;;;;;;;4.27;3.97;;;;;;;;;;5027782;28;20226;-50
2023/08/15 00:16:14;;;;;;;5.20;4.70;;;;;;;;;;5027782;28;20231;-50
2023/08/15 00:18:40;;;;;;;5.53;3.90;;;;;;;;;;5024831;28;20653;-50
2023/08/15 00:21:06;;;;;;;4.07;3.73;;;;;;;;;;5028750;28;20284;-50
2023/08/15 00:23:32;;;;;;;4.03;3.73;;;;;;;;;;5027093;28;20213;-50
2023/08/15 00:25:58;;;;;;;3.63;3.43;;;;;;;;;;5027518;28;20563;-50
2023/08/15 00:28:24;;;;;;;4.87;4.47;;;;;;;;;;5028716;28;20331;-49
2023/08/15 00:30:50;;;;;;;4.33;3.93;;;;;;;;;;5022188;28;20217;-50
2023/08/15 00:33:16;;;;;;;4.43;4.03;;;;;;;;;;5025086;28;20207;-51
2023/08/15 00:35:45;;;;;;;4.33;3.80;;;;;;;;;;5025757;28;20190;-51
2023/08/15 00:38:11;;;;;;;3.83;3.53;;;;;;;;;;5026066;28;20276;-52
2023/08/15 00:40:41;;;;;;;4.13;3.80;;;;;;;;;;5026922;28;20528;-53
2023/08/15 00:43:15;;;;;;;5.00;4.07;;;;;;;;;;5023342;28;20544;-53
2023/08/15 00:45:42;;;;;;;4.27;3.97;;;;;;;;;;5024094;28;20651;-53
2023/08/15 00:48:08;;;;;;;4.17;3.80;;;;;;;;;;5022085;28;20182;-53
2023/08/15 00:50:34;;;;;;;4.37;3.97;;;;;;;;;;5027838;28;20195;-53
2023/08/15 00:53:01;;;;;;;3.97;3.60;;;;;;;;;;5026652;28;20194;-53
2023/08/15 00:55:28;;;;;;;4.07;3.77;;;;;;;;;;5020216;28;20191;-53
2023/08/15 00:57:54;;;;;;;3.63;3.33;;;;;;;;;;5027564;28;20188;-53
2023/08/15 01:00:20;;;;;;;4.67;4.03;;;;;;;;;;5019914;28;20187;-53
2023/08/15 01:02:46;;;;;;;3.97;3.63;;;;;;;;;;5026451;28;20232;-53
2023/08/15 01:05:18;;;;;;;3.77;3.47;;;;;;;;;;5025986;28;20210;-53
2023/08/15 01:07:44;;;;;;;4.03;3.73;;;;;;;;;;5027437;28;20256;-53
2023/08/15 01:10:10;;;;;;;4.47;4.07;;;;;;;;;;5027147;28;20198;-52
2023/08/15 01:12:44;;;;;;;4.13;3.83;;;;;;;;;;5024905;28;20203;-53
2023/08/15 01:15:14;;;;;;;5.77;3.73;;;;;;;;;;5026510;28;20679;-54
2023/08/15 01:17:40;;;;;;;4.07;3.77;;;;;;;;;;5025437;28;20264;-57
2023/08/15 01:20:11;;;;;;;4.43;4.03;;;;;;;;;;5027967;28;20190;-53
2023/08/15 01:22:41;;;;;;;4.10;3.80;;;;;;;;;;5025227;28;20200;-53
2023/08/15 01:25:07;;;;;;;4.20;3.80;;;;;;;;;;5026397;28;20201;-53
2023/08/15 01:27:33;;;;;;;4.13;3.83;;;;;;;;;;5026650;28;20185;-53
2023/08/15 01:30:00;;;;;;;4.40;4.00;;;;;;;;;;5026907;28;20663;-53
2023/08/15 01:32:45;;;;;;;4.17;3.77;;;;;;;;;;5027030;28;20280;-53
2023/08/15 01:35:11;;;;;;;5.27;4.00;;;;;;;;;;5024978;28;20204;-52
2023/08/15 01:37:40;;;;;;;5.17;3.87;;;;;;;;;;5026539;28;20276;-52
2023/08/15 01:40:09;;;;;;;3.83;3.53;;;;;;;;;;5026793;28;20715;-52
2023/08/15 01:42:39;;;;;;;4.07;3.67;;;;;;;;;;5025827;28;20248;-49
2023/08/15 01:45:05;;;;;;;3.83;3.53;;;;;;;;;;5026136;28;20276;-49
2023/08/15 01:47:32;;;;;;;3.50;3.20;;;;;;;;;;5023279;28;20188;-49
2023/08/15 01:49:58;;;;;;;4.27;3.87;;;;;;;;;;5024491;28;20239;-50
2023/08/15 01:52:24;;;;;;;4.27;3.87;;;;;;;;;;5023556;28;20182;-49
2023/08/15 01:54:50;;;;;;;4.17;3.87;;;;;;;;;;5026133;28;20244;-50
2023/08/15 01:57:16;;;;;;;4.03;3.73;;;;;;;;;;5024451;28;20194;-50
2023/08/15 01:59:43;;;;;;;3.87;3.50;;;;;;;;;;5025688;28;20189;-49
2023/08/15 02:02:10;;;;;;;4.50;3.73;;;;;;;;;;5024235;28;20190;-49
2023/08/15 02:04:36;;;;;;;5.10;3.77;;;;;;;;;;5024245;28;20654;-49
2023/08/15 02:07:02;;;;;;;3.67;3.33;;;;;;;;;;5022737;28;20186;-50
2023/08/15 02:09:28;;;;;;;4.50;4.20;;;;;;;;;;5026549;28;20186;-49
2023/08/15 02:11:54;;;;;;;6.63;3.97;;;;;;;;;;5024685;28;20190;-49
2023/08/15 02:14:20;;;;;;;4.33;4.03;;;;;;;;;;5026594;28;20182;-50
2023/08/15 02:16:46;;;;;;;4.27;3.90;;;;;;;;;;5025577;28;20190;-50
2023/08/15 02:19:12;;;;;;;4.00;3.70;;;;;;;;;;5027019;28;20650;-50
2023/08/15 02:21:38;;;;;;;6.17;3.90;;;;;;;;;;5027408;28;20202;-49
2023/08/15 02:24:05;;;;;;;3.90;3.50;;;;;;;;;;5022701;28;20301;-49
2023/08/15 02:26:31;;;;;;;3.70;3.40;;;;;;;;;;5024786;28;20189;-50
2023/08/15 02:28:57;;;;;;;4.47;4.07;;;;;;;;;;5024092;28;20963;-50
2023/08/15 02:31:26;;;;;;;4.13;3.70;;;;;;;;;;5024246;28;20217;-50
2023/08/15 02:33:52;;;;;;;4.53;3.80;;;;;;;;;;5024323;28;20181;-50
2023/08/15 02:36:18;;;;;;;4.33;3.97;;;;;;;;;;5025388;28;20568;-50
2023/08/15 02:38:44;;;;;;;4.70;4.30;;;;;;;;;;5020758;28;20642;-50
2023/08/15 02:41:10;;;;;;;3.90;3.60;;;;;;;;;;5024831;28;20189;-49
2023/08/15 02:43:36;;;;;;;4.10;3.80;;;;;;;;;;5024196;28;20632;-49
2023/08/15 02:46:02;;;;;;;5.43;4.10;;;;;;;;;;5025525;28;20209;-50
2023/08/15 02:48:28;;;;;;;4.23;3.83;;;;;;;;;;5022376;28;20276;-49
2023/08/15 02:50:54;;;;;;;4.27;3.90;;;;;;;;;;5026389;28;20197;-49
2023/08/15 02:53:20;;;;;;;4.53;4.13;;;;;;;;;;5023973;28;20185;-49
2023/08/15 02:55:50;;;;;;;4.13;3.70;;;;;;;;;;5025058;28;20304;-49
2023/08/15 02:58:16;;;;;;;5.07;4.50;;;;;;;;;;5023868;28;20182;-49
2023/08/15 03:00:43;;;;;;;4.57;4.17;;;;;;;;;;5026011;28;20721;-49
2023/08/15 03:03:09;;;;;;;5.57;4.67;;;;;;;;;;5028000;28;20182;-49
2023/08/15 03:05:38;;;;;;;4.13;3.83;;;;;;;;;;5029877;28;20178;-49
2023/08/15 03:08:04;;;;;;;4.67;4.20;;;;;;;;;;5026880;28;20746;-49
2023/08/15 03:10:32;;;;;;;4.20;3.90;;;;;;;;;;5028493;28;20564;-50
2023/08/15 03:12:58;;;;;;;4.40;4.00;;;;;;;;;;5027774;28;20236;-49
2023/08/15 03:15:25;;;;;;;4.93;4.30;;;;;;;;;;5030033;28;20194;-48
2023/08/15 03:17:51;;;;;;;6.00;4.47;;;;;;;;;;5028447;28;20202;-49
2023/08/15 03:20:17;;;;;;;5.27;4.77;;;;;;;;;;5027708;28;20202;-49
2023/08/15 03:22:43;;;;;;;5.30;4.53;;;;;;;;;;5027665;28;20205;-50
2023/08/15 03:25:10;;;;;;;6.17;4.80;;;;;;;;;;5026164;28;20202;-50
2023/08/15 03:27:36;;;;;;;5.13;4.43;;;;;;;;;;5025451;28;20183;-51
2023/08/15 03:30:02;;;;;;;5.63;4.43;;;;;;;;;;5029755;28;20286;-52
2023/08/15 03:32:28;;;;;;;4.53;3.80;;;;;;;;;;5027250;28;20683;-53
2023/08/15 03:34:54;;;;;;;3.97;3.67;;;;;;;;;;5030007;28;20661;-53
2023/08/15 03:37:22;;;;;;;4.50;4.10;;;;;;;;;;5029292;28;20230;-52
2023/08/15 03:39:48;;;;;;;4.77;4.27;;;;;;;;;;5028873;28;20222;-52
2023/08/15 03:42:14;;;;;;;5.50;4.63;;;;;;;;;;5025919;28;20653;-53
2023/08/15 03:44:40;;;;;;;5.67;4.43;;;;;;;;;;5029628;28;20214;-53
2023/08/15 03:47:06;;;;;;;4.80;4.37;;;;;;;;;;5030210;28;20190;-52
2023/08/15 03:49:32;;;;;;;5.03;4.17;;;;;;;;;;5029390;28;20186;-53
2023/08/15 03:51:58;;;;;;;6.30;4.27;;;;;;;;;;5029456;28;20257;-53
2023/08/15 03:54:24;;;;;;;4.80;4.40;;;;;;;;;;5029313;28;20205;-52
2023/08/15 03:56:50;;;;;;;5.23;4.17;;;;;;;;;;5029941;28;20189;-53
2023/08/15 03:59:16;;;;;;;5.13;4.63;;;;;;;;;;5028635;28;20715;-53
2023/08/15 04:01:42;;;;;;;5.00;4.47;;;;;;;;;;5028858;28;20201;-52
2023/08/15 04:04:08;;;;;;;6.07;4.20;;;;;;;;;;5027493;28;20217;-55
2023/08/15 04:06:34;;;;;;;6.20;4.20;;;;;;;;;;5029584;28;20181;-55
2023/08/15 04:09:01;;;;;;;5.90;3.90;;;;;;;;;;5027760;28;20273;-55
2023/08/15 04:11:27;;;;;;;5.67;5.00;;;;;;;;;;5028579;28;20240;-55
2023/08/15 04:13:53;;;;;;;8.60;4.50;;;;;;;;;;5029453;28;20244;-53
2023/08/15 04:16:19;;;;;;;5.83;5.03;;;;;;;;;;5029038;28;20534;-53
2023/08/15 04:18:45;;;;;;;6.07;5.47;;;;;;;;;;5028740;28;20197;-53
2023/08/15 04:21:11;;;;;;;4.63;4.23;;;;;;;;;;5029178;28;20649;-53
2023/08/15 04:23:37;;;;;;;4.37;3.97;;;;;;;;;;5027354;28;20206;-53
2023/08/15 04:26:03;;;;;;;4.83;4.37;;;;;;;;;;5029287;28;20721;-53
2023/08/15 04:28:29;;;;;;;5.53;4.10;;;;;;;;;;5021736;28;20178;-53
2023/08/15 04:30:55;;;;;;;4.47;4.07;;;;;;;;;;5027040;28;20244;-53
2023/08/15 04:33:22;;;;;;;6.10;4.67;;;;;;;;;;5028168;28;20602;-52
2023/08/15 04:35:48;;;;;;;4.50;4.10;;;;;;;;;;5027275;28;20194;-53
2023/08/15 04:38:14;;;;;;;5.70;4.37;;;;;;;;;;5027745;28;20713;-51
2023/08/15 04:40:40;;;;;;;5.47;4.20;;;;;;;;;;5023559;28;20201;-52
2023/08/15 04:43:07;;;;;;;5.63;4.03;;;;;;;;;;5027020;28;20776;-52
2023/08/15 04:45:33;;;;;;;5.30;4.80;;;;;;;;;;5028542;28;20604;-52
2023/08/15 04:47:59;;;;;;;6.00;4.37;;;;;;;;;;5027718;28;20218;-52
2023/08/15 04:50:25;;;;;;;6.13;4.40;;;;;;;;;;5026214;28;20201;-52
2023/08/15 04:52:51;;;;;;;5.20;4.03;;;;;;;;;;5028594;28;20186;-52
2023/08/15 04:55:17;;;;;;;6.47;4.40;;;;;;;;;;5026912;28;20181;-52
2023/08/15 04:57:44;;;;;;;5.47;4.97;;;;;;;;;;5028284;28;20685;-53
2023/08/15 05:00:11;;;;;;;5.50;4.70;;;;;;;;;;5023711;28;20198;-53
2023/08/15 05:02:37;;;;;;;6.37;4.57;;;;;;;;;;5028008;28;20194;-53
2023/08/15 05:05:05;;;;;;;5.17;4.67;;;;;;;;;;5026976;28;20305;-53
2023/08/15 05:07:32;;;;;;;5.87;4.13;;;;;;;;;;5026927;28;20189;-53
2023/08/15 05:09:58;;;;;;;6.37;4.33;;;;;;;;;;5027568;28;20190;-53
2023/08/15 05:12:24;;;;;;;6.10;4.23;;;;;;;;;;5026783;28;20203;-53
2023/08/15 05:14:50;;;;;;;5.77;4.17;;;;;;;;;;5027621;28;20190;-54
2023/08/15 05:17:16;;;;;;;6.37;4.40;;;;;;;;;;5028315;28;20248;-54
2023/08/15 05:19:42;;;;;;;7.40;4.93;;;;;;;;;;5027485;28;20661;-54
2023/08/15 05:22:08;;;;;;;6.80;4.10;;;;;;;;;;5027227;28;20197;-54
2023/08/15 05:24:34;;;;;;;4.77;4.37;;;;;;;;;;5023433;28;20224;-53
2023/08/15 05:27:00;;;;;;;5.37;4.20;;;;;;;;;;5023375;28;20646;-52
2023/08/15 05:29:26;;;;;;;5.73;4.17;;;;;;;;;;5026560;28;20225;-52
2023/08/15 05:31:52;;;;;;;5.73;4.53;;;;;;;;;;5024210;28;20249;-52
2023/08/15 05:34:18;;;;;;;6.07;4.37;;;;;;;;;;5024715;28;20201;-52
2023/08/15 05:36:44;;;;;;;4.83;4.17;;;;;;;;;;5025498;28;20940;-52
2023/08/15 05:39:10;;;;;;;5.20;4.37;;;;;;;;;;5026733;28;20707;-51
2023/08/15 05:41:36;;;;;;;4.30;3.80;;;;;;;;;;5028432;28;20190;-52
2023/08/15 05:44:02;;;;;;;5.00;4.37;;;;;;;;;;5027286;28;20268;-51
2023/08/15 05:46:29;;;;;;;4.10;3.70;;;;;;;;;;5024263;28;20418;-52
2023/08/15 05:48:55;;;;;;;4.70;3.77;;;;;;;;;;4999942;28;20251;-52
2023/08/15 05:51:21;;;;;;;5.27;3.93;;;;;;;;;;5023283;28;20658;-51
2023/08/15 05:53:47;;;;;;;4.27;3.70;;;;;;;;;;5018473;28;20209;-51
2023/08/15 05:56:13;;;;;;;4.10;3.80;;;;;;;;;;5029549;28;20186;-51
2023/08/15 05:58:39;;;;;;;4.30;3.90;;;;;;;;;;5027880;28;20510;-52
2023/08/15 06:01:05;;;;;;;4.83;4.10;;;;;;;;;;5014642;28;20198;-51
2023/08/15 06:03:32;;;;;;;4.57;3.83;;;;;;;;;;5021146;28;20190;-51
2023/08/15 06:05:58;;;;;;;4.90;3.87;;;;;;;;;;5025480;28;20208;-51
2023/08/15 06:08:25;;;;;;;4.70;4.03;;;;;;;;;;5026002;28;20653;-52
2023/08/15 06:10:51;;;;;;;5.90;3.90;;;;;;;;;;5028864;28;20244;-52
2023/08/15 06:13:18;;;;;;;5.37;4.20;;;;;;;;;;5028382;28;20289;-52
2023/08/15 06:15:45;;;;;;;6.37;4.10;;;;;;;;;;5024568;28;20182;-51
2023/08/15 06:18:12;;;;;;;5.23;3.70;;;;;;;;;;5021019;28;20186;-51
2023/08/15 06:20:38;;;;;;;4.50;3.50;;;;;;;;;;5002654;28;20260;-52
2023/08/15 06:23:05;;;;;;;4.23;3.80;;;;;;;;;;5022178;28;20338;-56
2023/08/15 06:25:31;;;;;;;3.53;3.23;;;;;;;;;;5024737;28;20613;-55
2023/08/15 06:27:57;;;;;;;4.63;3.20;;;;;;;;;;4999210;28;20193;-55
2023/08/15 06:30:23;;;;;;;4.87;3.50;;;;;;;;;;5026319;28;20209;-55
2023/08/15 06:32:50;;;;;;;4.67;3.47;;;;;;;;;;5024741;28;20272;-54
2023/08/15 06:35:16;;;;;;;3.63;3.33;;;;;;;;;;5008517;28;20573;-54
2023/08/15 06:37:42;;;;;;;3.60;2.87;;;;;;;;;;5024669;28;20186;-54
2023/08/15 06:40:08;;;;;;;3.57;3.23;;;;;;;;;;5022087;28;20268;-54
2023/08/15 06:42:35;;;;;;;3.13;2.83;;;;;;;;;;5005066;28;20380;-54
2023/08/15 06:45:03;;;;;;;2.87;2.63;;;;;;;;;;5021204;28;20206;-54
2023/08/15 06:47:30;;;;;;;6.10;3.23;;;;;;;;;;5021060;28;20190;-54
2023/08/15 06:49:56;;;;;;;3.07;2.67;;;;;;;;;;5001697;28;20251;-54
2023/08/15 06:52:22;;;;;;;2.87;2.57;;;;;;;;;;5021816;28;20185;-54
2023/08/15 06:54:48;;;;;;;4.83;3.07;;;;;;;;;;5020785;28;20249;-54
2023/08/15 06:57:14;;;;;;;4.40;3.13;;;;;;;;;;5025148;28;20575;-54
2023/08/15 06:59:40;;;;;;;5.37;2.93;;;;;;;;;;5022020;28;20655;-54
2023/08/15 07:02:07;;;;;;;2.80;2.60;;;;;;;;;;5022914;28;20657;-54
2023/08/15 07:04:33;;;;;;;3.70;3.00;;;;;;;;;;5021021;28;20198;-54
2023/08/15 07:07:00;;;;;;;4.83;2.80;;;;;;;;;;5023528;28;20201;-54
2023/08/15 07:09:28;;;;;;;2.93;2.70;;;;;;;;;;5024619;28;20632;-54
2023/08/15 07:11:55;;;;;;;3.70;2.80;;;;;;;;;;5024584;28;20244;-54
2023/08/15 07:14:21;;;;;;;3.80;2.90;;;;;;;;;;5023432;28;20185;-53
2023/08/15 07:16:47;;;;;;;4.57;3.10;;;;;;;;;;5027629;28;20197;-54
2023/08/15 07:19:14;;;;;;;3.87;2.83;;;;;;;;;;5025586;28;20256;-54
2023/08/15 07:21:41;;;;;;;4.63;3.73;;;;;;;;;;5025193;28;20198;-54
2023/08/15 07:24:07;;;;;;;3.83;2.67;;;;;;;;;;5023522;28;20578;-54
2023/08/15 07:26:34;;;;;;;3.80;2.83;;;;;;;;;;5027041;28;20244;-54
2023/08/15 07:29:00;;;;;;;3.97;2.93;;;;;;;;;;5026088;28;20196;-54
2023/08/15 07:31:27;;;;;;;3.73;2.87;;;;;;;;;;5026371;28;20241;-54
2023/08/15 07:33:53;;;;;;;4.70;2.63;;;;;;;;;;5025407;28;20196;-54
2023/08/15 07:36:19;;;;;;;3.53;2.80;;;;;;;;;;5027632;28;20220;-54
2023/08/15 07:38:45;;;;;;;4.07;3.30;;;;;;;;;;5025797;28;20230;-53
2023/08/15 07:41:11;;;;;;;3.20;2.70;;;;;;;;;;5012913;28;20658;-54
2023/08/15 07:43:37;;;;;;;4.90;2.97;;;;;;;;;;5023119;28;20228;-53
2023/08/15 07:46:03;;;;;;;4.90;2.97;;;;;;;;;;5030069;28;20224;-54
2023/08/15 07:48:30;;;;;;;3.30;2.60;;;;;;;;;;5025119;28;20499;-53
2023/08/15 07:50:57;;;;;;;3.23;2.77;;;;;;;;;;5022647;28;20664;-54
2023/08/15 07:53:23;;;;;;;6.67;3.27;;;;;;;;;;5019715;28;20186;-54
2023/08/15 07:55:51;;;;;;;5.03;2.97;;;;;;;;;;5022927;28;20191;-53
2023/08/15 07:58:17;;;;;;;3.00;2.47;;;;;;;;;;5026152;28;20708;-53
2023/08/15 08:00:43;;;;;;;5.13;3.73;;;;;;;;;;5027855;28;20590;-53
2023/08/15 08:03:09;;;;;;;4.57;2.67;;;;;;;;;;5026997;28;20477;-53
2023/08/15 08:05:35;;;;;;;5.37;2.90;;;;;;;;;;5024266;28;20209;-53
2023/08/15 08:08:02;;;;;;;3.37;2.70;;;;;;;;;;5027586;28;20367;-54
2023/08/15 08:10:28;;;;;;;3.87;2.80;;;;;;;;;;5026788;28;20265;-53
2023/08/15 08:12:54;;;;;;;4.30;3.20;;;;;;;;;;5033226;28;20274;-53
2023/08/15 08:15:23;;;;;;;4.63;3.07;;;;;;;;;;5028703;28;20189;-53
2023/08/15 08:17:49;;;;;;;3.53;3.20;;;;;;;;;;5027430;28;20567;-54
2023/08/15 08:20:16;;;;;;;2.67;2.43;;;;;;;;;;5025036;28;20194;-53
2023/08/15 08:22:42;;;;;;;4.80;2.90;;;;;;;;;;5026315;28;20213;-53
2023/08/15 08:25:14;;;;;;;3.37;3.03;;;;;;;;;;5019909;28;20329;-53
2023/08/15 08:27:40;;;;;;;3.83;2.87;;;;;;;;;;5010069;28;20185;-53
2023/08/15 08:30:06;;;;;;;3.03;2.73;;;;;;;;;;5026384;28;20709;-53
2023/08/15 08:32:33;;;;;;;4.63;2.90;;;;;;;;;;5029865;28;20588;-53
2023/08/15 08:34:59;;;;;;;4.33;3.03;;;;;;;;;;5027148;28;20199;-53
2023/08/15 08:37:25;;;;;;;4.27;2.50;;;;;;;;;;5028763;28;20728;-52
2023/08/15 08:39:51;;;;;;;6.07;3.00;;;;;;;;;;5027234;28;20221;-53
2023/08/15 08:42:17;;;;;;;4.67;3.27;;;;;;;;;;5026147;28;20201;-53
2023/08/15 08:44:46;;;;;;;5.40;3.60;;;;;;;;;;5026137;28;20693;-53
2023/08/15 08:47:12;;;;;;;3.27;2.97;;;;;;;;;;5021969;28;20569;-53
2023/08/15 08:49:38;;;;;;;3.83;3.30;;;;;;;;;;5021049;28;20187;-57
2023/08/15 08:52:05;;;;;;;9.63;4.40;;;;;;;;;;5025469;28;20196;-57
2023/08/15 08:54:31;;;;;;;13.47;5.80;;;;;;;;;;5026565;28;20190;-57
2023/08/15 08:56:59;;;;;;;4.27;3.83;;;;;;;;;;5023663;28;20220;-57
2023/08/15 08:59:26;;;;;;;7.63;3.33;;;;;;;;;;5025284;28;20264;-57
2023/08/15 09:01:53;;;;;;;4.67;3.17;;;;;;;;;;5029653;28;20198;-57
2023/08/15 09:04:21;;;;;;;5.07;3.33;;;;;;;;;;5017400;28;20375;-54
2023/08/15 09:06:47;;;;;;;5.67;2.90;;;;;;;;;;5027348;28;20190;-55
2023/08/15 09:09:13;;;;;;;5.47;3.10;;;;;;;;;;4999568;28;20272;-55
2023/08/15 09:11:40;;;;;;;4.87;2.90;;;;;;;;;;5025700;28;20194;-55
2023/08/15 09:14:07;;;;;;;8.37;2.67;;;;;;;;;;5023193;28;20651;-57
2023/08/15 09:16:33;;;;;;;5.30;2.90;;;;;;;;;;5028437;28;20209;-57
2023/08/15 09:19:01;;;;;;;3.30;2.70;;;;;;;;;;5029336;28;20217;-56
2023/08/15 09:21:27;;;;;;;4.57;2.90;;;;;;;;;;5029265;28;20547;-56
2023/08/15 09:23:55;;;;;;;4.80;2.83;;;;;;;;;;5024251;28;20210;-57
2023/08/15 09:26:22;;;;;;;5.13;3.10;;;;;;;;;;5024362;28;20191;-56
2023/08/15 09:28:48;;;;;;;5.27;3.30;;;;;;;;;;5026553;28;20218;-57
2023/08/15 09:31:14;;;;;;;8.03;4.13;;;;;;;;;;5027414;28;20210;-57
2023/08/15 09:33:40;;;;;;;5.33;4.37;;;;;;;;;;5023996;28;20711;-57
2023/08/15 09:36:08;;;;;;;6.73;4.57;;;;;;;;;;5027793;28;20186;-57
2023/08/15 09:38:37;;;;;;;11.93;5.40;;;;;;;;;;5025198;28;20248;-57
2023/08/15 09:41:04;;;;;;;9.40;5.23;;;;;;;;;;5027452;28;20223;-57
2023/08/15 09:43:30;;;;;;;10.23;5.20;;;;;;;;;;5025341;28;20647;-57
2023/08/15 09:45:58;;;;;;;8.33;4.47;;;;;;;;;;5022463;28;20194;-57
2023/08/15 09:48:24;;;;;;;8.50;4.07;;;;;;;;;;5024829;28;20222;-57
2023/08/15 09:50:50;;;;;;;6.60;4.10;;;;;;;;;;5027200;28;20186;-57
2023/08/15 09:53:16;;;;;;;8.00;4.77;;;;;;;;;;5026633;28;20609;-57
2023/08/15 09:55:42;;;;;;;7.37;3.40;;;;;;;;;;5027236;28;20202;-57
2023/08/15 09:58:08;;;;;;;6.47;3.40;;;;;;;;;;5024332;28;20210;-57
2023/08/15 10:00:36;;;;;;;4.70;2.47;;;;;;;;;;5023425;28;20527;-57
2023/08/15 10:03:14;;;;;;;4.83;2.73;;;;;;;;;;5024753;28;20284;-57
2023/08/15 10:05:43;;;;;;;5.63;3.10;;;;;;;;;;5023176;28;20215;-57
2023/08/15 10:08:10;;;;;;;6.57;4.30;;;;;;;;;;5020814;28;20190;-57
2023/08/15 10:10:37;;;;;;;5.13;3.57;;;;;;;;;;5025229;28;20638;-58
2023/08/15 10:13:03;;;;;;;5.87;3.10;;;;;;;;;;5027146;28;20641;-58
2023/08/15 10:15:30;;;;;;;5.20;3.00;;;;;;;;;;5027163;28;20198;-55
2023/08/15 10:17:57;;;;;;;6.33;2.67;;;;;;;;;;5023717;28;20252;-54
2023/08/15 10:20:24;;;;;;;3.07;2.70;;;;;;;;;;5022472;28;20200;-55
2023/08/15 10:22:51;;;;;;;3.47;2.60;;;;;;;;;;5022822;28;20285;-56
2023/08/15 10:25:20;;;;;;;3.53;2.27;;;;;;;;;;5023741;28;20802;-55
2023/08/15 10:27:51;;;;;;;3.23;2.57;;;;;;;;;;5006154;28;20185;-55
2023/08/15 10:30:29;;;;;;;4.17;2.80;;;;;;;;;;5022862;28;20643;-55
2023/08/15 10:32:55;;;;;;;4.10;3.17;;;;;;;;;;5025429;28;20312;-55
2023/08/15 10:35:27;;;;;;;5.23;2.70;;;;;;;;;;5023448;28;20669;-56
2023/08/15 10:37:56;;;;;;;3.77;2.30;;;;;;;;;;5021675;28;20218;-55
2023/08/15 10:40:27;;;;;;;4.50;2.67;;;;;;;;;;5022114;28;20189;-56
2023/08/15 10:42:57;;;;;;;3.43;2.60;;;;;;;;;;5023083;28;20198;-55
2023/08/15 10:45:23;;;;;;;3.77;2.80;;;;;;;;;;5023856;28;20210;-55
2023/08/15 10:47:50;;;;;;;3.50;2.77;;;;;;;;;;5022340;28;20555;-55
2023/08/15 10:50:16;;;;;;;6.17;2.77;;;;;;;;;;5025696;28;20200;-55
2023/08/15 10:52:42;;;;;;;3.57;2.60;;;;;;;;;;5021418;28;20185;-55
2023/08/15 10:55:09;;;;;;;5.27;3.37;;;;;;;;;;5021685;28;20225;-56
2023/08/15 10:57:36;;;;;;;3.50;2.80;;;;;;;;;;5020231;28;20189;-55
2023/08/15 11:00:04;;;;;;;4.17;3.07;;;;;;;;;;5019183;28;20742;-55
2023/08/15 11:02:31;;;;;;;4.77;2.60;;;;;;;;;;5020767;28;20561;-55
2023/08/15 11:04:57;;;;;;;4.20;3.03;;;;;;;;;;5021571;28;20550;-56
2023/08/15 11:07:26;;;;;;;4.50;4.00;;;;;;;;;;5024194;28;20195;-54
2023/08/15 11:09:52;;;;;;;4.50;3.50;;;;;;;;;;5024018;28;20196;-57
2023/08/15 11:12:18;;;;;;;6.07;3.27;;;;;;;;;;5018758;28;20178;-58
2023/08/15 11:14:52;;;;;;;3.10;2.50;;;;;;;;;;5024375;28;20553;-58
2023/08/15 11:17:18;;;;;;;5.27;3.13;;;;;;;;;;5022870;28;20247;-57
2023/08/15 11:19:46;;;;;;;4.37;2.77;;;;;;;;;;5027670;28;20245;-57
2023/08/15 11:22:12;;;;;;;4.60;2.90;;;;;;;;;;5023952;28;20228;-57
2023/08/15 11:24:38;;;;;;;4.53;2.80;;;;;;;;;;5021802;28;20742;-56
2023/08/15 11:27:04;;;;;;;5.73;3.00;;;;;;;;;;5023618;28;20685;-57
2023/08/15 11:29:30;;;;;;;4.50;2.47;;;;;;;;;;5026247;28;20189;-56
2023/08/15 11:32:00;;;;;;;4.40;3.07;;;;;;;;;;5028376;28;20269;-57
2023/08/15 11:34:29;;;;;;;6.87;2.90;;;;;;;;;;5026120;28;20194;-58
2023/08/15 11:36:55;;;;;;;6.57;3.60;;;;;;;;;;5026148;28;20194;-57
2023/08/15 11:39:21;;;;;;;9.17;2.83;;;;;;;;;;5027228;28;20241;-58
2023/08/15 11:41:47;;;;;;;6.60;3.43;;;;;;;;;;5025104;28;20748;-57
2023/08/15 11:44:13;;;;;;;5.33;3.17;;;;;;;;;;5024744;28;20217;-57
2023/08/15 11:46:41;;;;;;;8.63;2.87;;;;;;;;;;5029094;28;20849;-57
2023/08/15 11:49:15;;;;;;;4.83;2.60;;;;;;;;;;5024290;28;21079;-57
2023/08/15 11:51:41;;;;;;;5.33;3.07;;;;;;;;;;5023190;28;20197;-58
2023/08/15 11:54:07;;;;;;;4.97;3.10;;;;;;;;;;5009736;28;20192;-60
2023/08/15 11:56:53;;;;;;;3.53;2.83;;;;;;;;;;5027600;28;20585;-58
2023/08/15 11:59:19;;;;;;;3.40;2.97;;;;;;;;;;5022888;28;20196;-57
2023/08/15 12:01:45;;;;;;;3.73;2.93;;;;;;;;;;5024687;28;20636;-57
2023/08/15 12:04:13;;;;;;;4.53;3.87;;;;;;;;;;5020067;28;20238;-57
2023/08/15 12:06:39;;;;;;;5.50;3.13;;;;;;;;;;5023997;28;20180;-57
2023/08/15 12:09:06;;;;;;;3.27;2.70;;;;;;;;;;5021957;28;20570;-57
2023/08/15 12:11:34;;;;;;;4.30;2.83;;;;;;;;;;5022996;28;20704;-57
2023/08/15 12:14:00;;;;;;;4.30;3.20;;;;;;;;;;5028019;28;20205;-58
2023/08/15 12:16:26;;;;;;;3.60;2.63;;;;;;;;;;5024957;28;20199;-56
2023/08/15 12:18:52;;;;;;;3.67;2.90;;;;;;;;;;5026009;28;20198;-56
2023/08/15 12:21:18;;;;;;;4.73;3.17;;;;;;;;;;5025419;28;20559;-57
2023/08/15 12:23:44;;;;;;;4.53;3.10;;;;;;;;;;5020830;28;20207;-57
2023/08/15 12:26:10;;;;;;;3.73;3.07;;;;;;;;;;5026871;28;20192;-58
2023/08/15 12:28:37;;;;;;;5.70;2.97;;;;;;;;;;5024717;28;20564;-57
2023/08/15 12:31:03;;;;;;;4.43;3.03;;;;;;;;;;5021678;28;20638;-57
2023/08/15 12:33:36;;;;;;;5.40;3.20;;;;;;;;;;5024887;28;20708;-57
2023/08/15 12:36:03;;;;;;;4.33;3.17;;;;;;;;;;5026571;28;20663;-57
2023/08/15 12:38:29;;;;;;;3.00;2.70;;;;;;;;;;5019084;28;20603;-57
2023/08/15 12:40:55;;;;;;;6.43;3.20;;;;;;;;;;5027902;28;20197;-57
2023/08/15 12:43:22;;;;;;;3.97;2.80;;;;;;;;;;5033115;28;20182;-57
2023/08/15 12:45:48;;;;;;;4.53;2.80;;;;;;;;;;5004240;28;20211;-55
2023/08/15 12:48:14;;;;;;;5.77;3.50;;;;;;;;;;5017223;28;20203;-55
2023/08/15 12:50:41;;;;;;;4.93;3.53;;;;;;;;;;5021632;28;20196;-55
2023/08/15 12:53:08;;;;;;;4.10;2.93;;;;;;;;;;5020877;28;20187;-55
2023/08/15 12:55:35;;;;;;;5.20;3.50;;;;;;;;;;5023121;28;20546;-55
2023/08/15 12:58:02;;;;;;;4.57;3.07;;;;;;;;;;5020090;28;20186;-54
2023/08/15 13:00:29;;;;;;;4.57;3.23;;;;;;;;;;5022936;28;20338;-55
2023/08/15 13:02:57;;;;;;;4.60;3.20;;;;;;;;;;5005471;28;20568;-54
2023/08/15 13:05:23;;;;;;;5.50;3.07;;;;;;;;;;5022663;28;20199;-54
2023/08/15 13:07:50;;;;;;;5.17;2.53;;;;;;;;;;5023418;28;20202;-53
2023/08/15 13:10:17;;;;;;;4.00;3.10;;;;;;;;;;5020622;28;21550;-54
2023/08/15 13:12:43;;;;;;;6.13;3.00;;;;;;;;;;5017206;28;20196;-54
2023/08/15 13:15:11;;;;;;;7.07;3.00;;;;;;;;;;5022190;28;20189;-54
2023/08/15 13:17:37;;;;;;;4.47;2.70;;;;;;;;;;5022653;28;20192;-54
2023/08/15 13:20:04;;;;;;;3.67;2.63;;;;;;;;;;5028078;28;20198;-54
2023/08/15 13:22:30;;;;;;;3.60;3.03;;;;;;;;;;5020505;28;20208;-55
2023/08/15 13:24:56;;;;;;;4.30;3.10;;;;;;;;;;5023837;28;20220;-55
2023/08/15 13:27:22;;;;;;;11.53;3.17;;;;;;;;;;5026353;28;20180;-54
2023/08/15 13:29:48;;;;;;;4.07;2.93;;;;;;;;;;5018991;28;20231;-54
2023/08/15 13:32:14;;;;;;;5.27;3.00;;;;;;;;;;5023817;28;20339;-55
2023/08/15 13:34:41;;;;;;;3.27;2.73;;;;;;;;;;5022589;28;20191;-55
2023/08/15 13:37:07;;;;;;;3.73;2.60;;;;;;;;;;5021174;28;20596;-54
2023/08/15 13:39:33;;;;;;;3.00;2.77;;;;;;;;;;5022222;28;20232;-55
2023/08/15 13:41:59;;;;;;;4.93;3.23;;;;;;;;;;5019238;28;20666;-54
2023/08/15 13:44:25;;;;;;;4.70;3.20;;;;;;;;;;5019160;28;20219;-54
2023/08/15 13:46:51;;;;;;;4.47;3.00;;;;;;;;;;5021656;28;20690;-54
2023/08/15 13:49:17;;;;;;;7.07;3.10;;;;;;;;;;5025255;28;20223;-55
2023/08/15 13:51:43;;;;;;;6.70;3.50;;;;;;;;;;5019048;28;20232;-54
2023/08/15 13:54:09;;;;;;;6.43;2.90;;;;;;;;;;5015792;28;20246;-54
2023/08/15 13:56:35;;;;;;;4.83;3.10;;;;;;;;;;5024392;28;20185;-54
2023/08/15 13:59:02;;;;;;;10.03;3.17;;;;;;;;;;5026173;28;20628;-55
2023/08/15 14:01:28;;;;;;;4.53;2.90;;;;;;;;;;5021896;28;20583;-54
2023/08/15 14:03:54;;;;;;;3.90;3.37;;;;;;;;;;5022477;28;20197;-54
2023/08/15 14:06:20;;;;;;;3.77;2.90;;;;;;;;;;5021162;28;20341;-54
2023/08/15 14:08:46;;;;;;;4.47;3.27;;;;;;;;;;5019318;28;20197;-55
2023/08/15 14:11:12;;;;;;;5.47;2.87;;;;;;;;;;5023018;28;20885;-54
2023/08/15 14:13:38;;;;;;;6.70;3.60;;;;;;;;;;5020904;28;20191;-54
2023/08/15 14:16:04;;;;;;;6.97;3.27;;;;;;;;;;5023634;28;20186;-55
2023/08/15 14:18:32;;;;;;;4.10;3.33;;;;;;;;;;5022970;28;20292;-54
2023/08/15 14:20:58;;;;;;;6.27;2.77;;;;;;;;;;5022629;28;20203;-54
2023/08/15 14:23:24;;;;;;;4.93;3.17;;;;;;;;;;5021150;28;20197;-55
2023/08/15 14:25:51;;;;;;;3.73;2.63;;;;;;;;;;5003932;28;20279;-55
2023/08/15 14:28:17;;;;;;;6.27;3.00;;;;;;;;;;5022146;28;20532;-55
2023/08/15 14:30:45;;;;;;;4.13;2.60;;;;;;;;;;5005556;28;20325;-54
2023/08/15 14:33:11;;;;;;;5.30;3.17;;;;;;;;;;5020632;28;20200;-53
2023/08/15 14:35:38;;;;;;;4.33;2.87;;;;;;;;;;5015734;28;20664;-54
2023/08/15 14:38:04;;;;;;;5.63;3.10;;;;;;;;;;5021195;28;20239;-54
2023/08/15 14:40:31;;;;;;;3.50;2.90;;;;;;;;;;5018004;28;20286;-54